Time;durP1;ratioP1;P1;durP2;ratioP2;P2;SDS_P1;SDS_P2;PMS_P1;PMS_P2;Temp;Humidity;BMP_temperature;BMP_pressure;BME280_temperature;BME280_humidity;BME280_pressure;Samples;Min_cycle;Max_cycle;Signal;HPM_P1;HPM_P2
2022/07/27 00:00:44;;;;;;;1999.90;999.90;;;;;;;22.66;59.70;95303.28;5017135;28;20499;-67
2022/07/27 00:03:09;;;;;;;1999.90;999.90;;;;;;;22.73;60.19;95323.09;5030848;28;20074;-67
2022/07/27 00:05:34;;;;;;;1999.90;999.90;;;;;;;22.62;60.60;95324.94;5049662;28;20123;-68
2022/07/27 00:08:00;;;;;;;1999.90;999.90;;;;;;;22.26;61.00;95277.81;5030874;28;20029;-67
2022/07/27 00:10:25;;;;;;;1999.90;999.90;;;;;;;22.40;61.27;95296.91;5049069;28;20024;-67
2022/07/27 00:12:51;;;;;;;1999.90;999.90;;;;;;;22.40;61.18;95296.13;5030241;28;20059;-67
2022/07/27 00:15:16;;;;;;;1999.90;999.90;;;;;;;22.53;61.14;95316.38;5048511;28;20217;-67
2022/07/27 00:17:42;;;;;;;1999.90;999.90;;;;;;;22.55;61.38;95319.47;5048460;28;20029;-67
2022/07/27 00:20:08;;;;;;;1999.90;999.90;;;;;;;22.66;61.30;95317.59;5048552;28;20039;-67
2022/07/27 00:22:33;;;;;;;1999.90;999.90;;;;;;;22.68;60.93;95304.47;5030773;28;20048;-66
2022/07/27 00:24:59;;;;;;;1999.90;999.90;;;;;;;22.76;60.28;95297.91;5030475;28;20115;-67
2022/07/27 00:27:24;;;;;;;1999.90;999.90;;;;;;;22.79;59.57;95299.88;5030554;28;20029;-66
2022/07/27 00:29:49;;;;;;;1999.90;999.90;;;;;;;22.74;60.23;95289.41;5031328;28;20470;-67
2022/07/27 00:32:14;;;;;;;1999.90;999.90;;;;;;;22.78;60.37;95297.56;5029874;28;20075;-67
2022/07/27 00:34:40;;;;;;;1999.90;999.90;;;;;;;22.77;60.33;95294.03;5048172;28;20029;-67
2022/07/27 00:37:05;;;;;;;1999.90;999.90;;;;;;;22.72;60.08;95274.66;5031387;28;20029;-67
2022/07/27 00:39:31;;;;;;;1999.90;999.90;;;;;;;22.93;59.65;95284.84;5048038;28;20033;-67
2022/07/27 00:41:56;;;;;;;1999.90;999.90;;;;;;;22.97;59.00;95274.81;5049159;28;20466;-67
2022/07/27 00:44:30;;;;;;;1999.90;999.90;;;;;;;23.26;58.43;95298.22;5029938;28;20029;-67
2022/07/27 00:46:56;;;;;;;1999.90;999.90;;;;;;;23.35;58.56;95295.16;5030408;28;20044;-67
2022/07/27 00:49:23;;;;;;;1999.90;999.90;;;;;;;23.26;57.76;95273.78;5029822;28;20025;-67
2022/07/27 00:51:49;;;;;;;1999.90;999.90;;;;;;;23.20;57.99;95288.13;5048969;28;20027;-66
2022/07/27 00:54:18;;;;;;;1999.90;999.90;;;;;;;23.17;58.24;95275.28;5047695;28;20082;-67
2022/07/27 00:56:44;;;;;;;1999.90;999.90;;;;;;;23.31;57.83;95275.34;5031056;28;20458;-68
2022/07/27 00:59:11;;;;;;;1999.90;999.90;;;;;;;23.21;57.99;95276.88;5030315;28;20116;-66
2022/07/27 01:01:37;;;;;;;1999.90;999.90;;;;;;;23.07;58.06;95260.53;5047868;28;20397;-67
2022/07/27 01:04:03;;;;;;;1999.90;999.90;;;;;;;22.99;58.41;95258.94;5047638;28;20033;-66
2022/07/27 01:06:29;;;;;;;1999.90;999.90;;;;;;;22.99;58.38;95250.81;5030903;28;20533;-66
2022/07/27 01:09:55;;;;;;;1999.90;999.90;;;;;;;22.44;58.33;95188.53;5048056;28;20033;-65
2022/07/27 01:11:43;;;;;;;1999.90;999.90;;;;;;;22.93;58.21;95268.59;5048598;28;20033;-66
2022/07/27 01:14:12;;;;;;;1999.90;999.90;;;;;;;22.62;58.41;95230.03;5028732;28;20025;-67
2022/07/27 01:16:37;;;;;;;1999.90;999.90;;;;;;;22.19;59.02;95227.06;5030257;28;20059;-67
2022/07/27 01:19:03;;;;;;;1999.90;999.90;;;;;;;21.83;60.67;95254.97;5030012;28;21167;-68
2022/07/27 01:21:32;;;;;;;1999.90;999.90;;;;;;;20.66;61.34;95131.63;5048841;28;20021;-68
2022/07/27 01:23:58;;;;;;;1999.90;999.90;;;;;;;21.62;61.24;95247.44;5047513;28;20553;-68
2022/07/27 01:26:23;;;;;;;1999.90;999.90;;;;;;;21.77;61.01;95238.31;5048499;28;20100;-68
2022/07/27 01:28:49;;;;;;;1999.90;999.90;;;;;;;21.53;61.02;95180.84;5048026;28;20104;-67
2022/07/27 01:31:14;;;;;;;1999.90;999.90;;;;;;;21.75;60.76;95208.91;5033918;28;20477;-68
2022/07/27 01:33:39;;;;;;;1999.90;999.90;;;;;;;22.03;60.89;95267.16;5051430;28;20104;-68
2022/07/27 01:36:05;;;;;;;1999.90;999.90;;;;;;;20.99;60.97;95100.31;5052290;28;20048;-68
2022/07/27 01:38:30;;;;;;;1999.90;999.90;;;;;;;21.73;60.60;95210.41;5052107;28;20440;-69
2022/07/27 01:40:56;;;;;;;1999.90;999.90;;;;;;;21.07;60.76;95123.56;5050920;28;20033;-68
2022/07/27 01:43:21;;;;;;;1999.90;999.90;;;;;;;21.47;60.75;95176.16;5051509;28;20484;-68
2022/07/27 01:45:48;;;;;;;1999.90;999.90;;;;;;;21.88;60.86;95224.84;5050224;28;20104;-67
2022/07/27 01:48:13;;;;;;;1999.90;999.90;;;;;;;21.36;60.41;95153.63;5051966;28;20100;-68
2022/07/27 01:50:39;;;;;;;1999.90;999.90;;;;;;;21.89;60.72;95234.53;5018076;28;20160;-68
2022/07/27 01:53:04;;;;;;;1999.90;999.90;;;;;;;21.11;60.65;95121.69;5013631;28;20025;-69
2022/07/27 01:55:30;;;;;;;1999.90;999.90;;;;;;;21.43;60.91;95180.75;5045203;28;20542;-68
2022/07/27 01:57:55;;;;;;;1999.90;999.90;;;;;;;21.33;61.10;95159.78;5051958;28;20029;-68
2022/07/27 02:00:21;;;;;;;1999.90;999.90;;;;;;;21.27;61.18;95162.03;5049585;28;20025;-68
2022/07/27 02:02:46;;;;;;;1999.90;999.90;;;;;;;21.16;61.28;95140.28;5051572;28;20114;-67
2022/07/27 02:05:12;;;;;;;1999.90;999.90;;;;;;;21.68;61.25;95224.28;5032974;28;20033;-67
2022/07/27 02:07:39;;;;;;;1999.90;999.90;;;;;;;21.03;61.44;95158.66;5051702;28;20029;-67
2022/07/27 02:10:05;;;;;;;1999.90;999.90;;;;;;;21.46;61.56;95205.16;5050704;28;20033;-67
2022/07/27 02:12:37;;;;;;;1999.90;999.90;;;;;;;21.35;61.45;95204.28;5051052;28;20048;-68
2022/07/27 02:15:04;;;;;;;1999.90;999.90;;;;;;;21.25;61.25;95173.22;5050244;28;20055;-67
2022/07/27 02:17:29;;;;;;;1999.90;999.90;;;;;;;20.63;61.29;95085.66;5032896;28;20432;-66
2022/07/27 02:19:55;;;;;;;1999.90;999.90;;;;;;;20.79;61.41;95109.75;5050286;28;20021;-67
2022/07/27 02:22:20;;;;;;;1999.90;999.90;;;;;;;21.51;61.10;95207.50;5032555;28;20037;-67
2022/07/27 02:24:45;;;;;;;1999.90;999.90;;;;;;;21.86;60.64;95255.03;5032693;28;20049;-67
2022/07/27 02:27:11;;;;;;;1999.90;999.90;;;;;;;21.82;60.22;95237.19;5033124;28;20044;-67
2022/07/27 02:29:36;;;;;;;1999.90;999.90;;;;;;;21.78;59.84;95229.03;5050426;28;20040;-67
2022/07/27 02:32:01;;;;;;;1999.90;999.90;;;;;;;21.42;59.90;95152.91;5048065;28;20052;-67
2022/07/27 02:34:27;;;;;;;1999.90;999.90;;;;;;;21.94;59.23;95201.69;5050824;28;20166;-67
2022/07/27 02:36:52;;;;;;;1999.90;999.90;;;;;;;22.34;59.04;95265.09;5050338;28;20462;-68
2022/07/27 02:39:17;;;;;;;1999.90;999.90;;;;;;;22.02;59.15;95219.56;5051191;28;20021;-68
2022/07/27 02:41:45;;;;;;;1999.90;999.90;;;;;;;22.11;58.76;95247.16;5049892;28;20100;-68
2022/07/27 02:44:13;;;;;;;1999.90;999.90;;;;;;;22.04;59.06;95225.38;5050266;28;20032;-67
2022/07/27 02:46:39;;;;;;;1999.90;999.90;;;;;;;22.11;58.48;95228.19;5050187;28;20040;-68
2022/07/27 02:49:04;;;;;;;1999.90;999.90;;;;;;;22.16;58.49;95246.81;5049547;28;20021;-67
2022/07/27 02:51:29;;;;;;;1999.90;999.90;;;;;;;22.08;58.67;95237.03;5050530;28;20531;-67
2022/07/27 02:53:55;;;;;;;1999.90;999.90;;;;;;;21.90;58.63;95217.91;5050353;28;20098;-67
2022/07/27 02:56:21;;;;;;;1999.90;999.90;;;;;;;22.23;58.77;95254.97;5013217;28;20022;-67
2022/07/27 02:58:46;;;;;;;1999.90;999.90;;;;;;;22.07;58.87;95230.06;5012979;28;20022;-67
2022/07/27 03:01:11;;;;;;;1999.90;999.90;;;;;;;21.82;58.37;95196.56;5046670;28;20036;-67
2022/07/27 03:03:37;;;;;;;1999.90;999.90;;;;;;;;;;5048433;28;20160;-66
2022/07/27 03:06:06;;;;;;;1999.90;999.90;;;;;;;22.14;57.95;95235.53;5050559;28;20036;-67
2022/07/27 03:08:31;;;;;;;1999.90;999.90;;;;;;;22.18;57.37;95249.91;5049447;28;20042;-67
2022/07/27 03:10:56;;;;;;;1999.90;999.90;;;;;;;21.93;57.43;95208.25;5050295;28;20025;-68
2022/07/27 03:13:22;;;;;;;1999.90;999.90;;;;;;;21.99;56.66;95206.75;5049023;28;20033;-67
2022/07/27 03:15:47;;;;;;;1999.90;999.90;;;;;;;22.21;56.88;95230.16;5031211;28;20020;-67
2022/07/27 03:18:12;;;;;;;1999.90;999.90;;;;;;;22.48;56.53;95252.44;5048774;28;20477;-66
2022/07/27 03:20:38;;;;;;;1999.90;999.90;;;;;;;22.45;55.80;95233.44;5032226;28;20021;-67
2022/07/27 03:23:03;;;;;;;1999.90;999.90;;;;;;;22.62;54.61;95243.59;5048909;28;20045;-67
2022/07/27 03:25:28;;;;;;;1999.90;999.90;;;;;;;22.68;54.47;95246.75;5050126;28;20021;-68
2022/07/27 03:27:54;;;;;;;1999.90;999.90;;;;;;;22.74;54.45;95256.84;5049147;28;20027;-67
2022/07/27 03:30:19;;;;;;;1999.90;999.90;;;;;;;22.76;54.66;95267.31;5048910;28;20025;-67
2022/07/27 03:32:45;;;;;;;1999.90;999.90;;;;;;;22.12;54.63;95259.53;5031135;28;20029;-68
2022/07/27 03:35:10;;;;;;;1999.90;999.90;;;;;;;21.84;55.53;95249.19;5049403;28;20086;-67
2022/07/27 03:37:35;;;;;;;1999.90;999.90;;;;;;;21.57;56.03;95270.22;5049917;28;20442;-67
2022/07/27 03:40:01;;;;;;;1999.90;999.90;;;;;;;21.77;56.08;95276.22;5048930;28;20107;-68
2022/07/27 03:42:26;;;;;;;1999.90;999.90;;;;;;;21.45;55.96;95200.91;5049340;28;20107;-68
2022/07/27 03:44:52;;;;;;;1999.90;999.90;;;;;;;21.57;55.57;95251.25;5049072;28;20397;-67
2022/07/27 03:47:18;;;;;;;1999.90;999.90;;;;;;;20.60;57.96;95216.88;5049074;28;20021;-67
2022/07/27 03:49:43;;;;;;;1999.90;999.90;;;;;;;20.54;59.42;95264.28;5048900;28;20025;-67
2022/07/27 03:52:09;;;;;;;1999.90;999.90;;;;;;;19.59;60.42;95189.47;5049109;28;20082;-67
2022/07/27 03:54:34;;;;;;;1999.90;999.90;;;;;;;20.17;59.75;95248.66;5048455;28;20036;-67
2022/07/27 03:57:01;;;;;;;1999.90;999.90;;;;;;;20.58;59.26;95259.72;5048522;28;20032;-68
2022/07/27 03:59:26;;;;;;;1999.90;999.90;;;;;;;20.71;58.99;95212.38;5048835;28;20385;-67
2022/07/27 04:01:52;;;;;;;1999.90;999.90;;;;;;;21.29;57.87;95243.56;5048474;28;20032;-67
2022/07/27 04:04:17;;;;;;;1999.90;999.90;;;;;;;21.07;56.24;95172.25;5048287;28;20104;-68
2022/07/27 04:06:42;;;;;;;1999.90;999.90;;;;;;;21.50;55.93;95207.91;5049355;28;20048;-68
2022/07/27 04:09:08;;;;;;;1999.90;999.90;;;;;;;21.17;55.00;95176.22;5048563;28;20060;-67
2022/07/27 04:11:33;;;;;;;1999.90;999.90;;;;;;;21.13;56.02;95215.97;5047798;28;20029;-68
2022/07/27 04:13:58;;;;;;;1999.90;999.90;;;;;;;20.93;56.13;95169.38;5048310;28;20112;-69
2022/07/27 04:16:24;;;;;;;1999.90;999.90;;;;;;;21.45;55.83;95230.66;5046704;28;20025;-67
2022/07/27 04:18:49;;;;;;;1999.90;999.90;;;;;;;21.45;55.62;95211.72;5048959;28;20545;-67
2022/07/27 04:21:14;;;;;;;1999.90;999.90;;;;;;;21.52;55.26;95206.38;5049617;28;20029;-66
2022/07/27 04:23:40;;;;;;;1999.90;999.90;;;;;;;21.77;55.00;95220.13;5048056;28;20398;-66
2022/07/27 04:26:05;;;;;;;1999.90;999.90;;;;;;;21.41;54.79;95221.72;5049588;28;20021;-67
2022/07/27 04:28:31;;;;;;;1999.90;999.90;;;;;;;20.47;57.28;95220.94;5048204;28;20033;-66
2022/07/27 04:30:57;;;;;;;1999.90;999.90;;;;;;;20.32;58.34;95228.03;5047088;28;20033;-65
2022/07/27 04:33:22;;;;;;;1999.90;999.90;;;;;;;20.43;58.22;95239.78;5047946;28;20033;-66
2022/07/27 04:35:47;;;;;;;1999.90;999.90;;;;;;;20.55;56.94;95222.59;5049007;28;20021;-66
2022/07/27 04:38:12;;;;;;;1999.90;999.90;;;;;;;20.85;55.85;95219.13;5048371;28;20090;-65
2022/07/27 04:40:38;;;;;;;1999.90;999.90;;;;;;;21.03;55.41;95230.91;5031263;28;20787;-65
2022/07/27 04:43:04;;;;;;;1999.90;999.90;;;;;;;21.48;54.10;95229.13;5048040;28;20028;-65
2022/07/27 04:45:30;;;;;;;1999.90;999.90;;;;;;;21.32;54.01;95242.88;5048079;28;20032;-66
2022/07/27 04:47:55;;;;;;;1999.90;999.90;;;;;;;20.88;54.55;95205.66;5048524;28;20021;-65
2022/07/27 04:50:21;;;;;;;1999.90;999.90;;;;;;;20.95;53.91;95167.88;5047872;28;20044;-67
2022/07/27 04:52:46;;;;;;;1999.90;999.90;;;;;;;21.28;53.50;95217.69;5048602;28;20110;-65
2022/07/27 04:55:12;;;;;;;1999.90;999.90;;;;;;;21.72;52.94;95250.25;5048060;28;20052;-64
2022/07/27 04:57:40;;;;;;;1999.90;999.90;;;;;;;21.89;52.57;95213.66;5031364;28;20017;-66
2022/07/27 05:00:07;;;;;;;1999.90;999.90;;;;;;;22.27;51.80;95242.22;5047533;28;20037;-65
2022/07/27 05:02:32;;;;;;;1999.90;999.90;;;;;;;22.54;51.47;95239.31;5046073;28;20099;-65
2022/07/27 05:04:58;;;;;;;1999.90;999.90;;;;;;;22.46;51.29;95202.47;5051326;28;20043;-64
2022/07/27 05:07:25;;;;;;;1999.90;999.90;;;;;;;22.76;50.52;95238.25;5035254;28;20420;-64
2022/07/27 05:09:50;;;;;;;1999.90;999.90;;;;;;;22.58;49.71;95249.03;5052858;28;20525;-64
2022/07/27 05:12:16;;;;;;;1999.90;999.90;;;;;;;22.64;49.01;95224.25;5052559;28;20116;-64
2022/07/27 05:14:41;;;;;;;1999.90;999.90;;;;;;;22.66;48.96;95216.50;5052503;28;20133;-64
2022/07/27 05:17:06;;;;;;;1999.90;999.90;;;;;;;22.80;48.72;95222.78;5051978;28;20032;-64
2022/07/27 05:19:32;;;;;;;1999.90;999.90;;;;;;;22.55;48.75;95173.84;5052647;28;20025;-64
2022/07/27 05:21:58;;;;;;;1999.90;999.90;;;;;;;23.02;49.15;95244.59;5052740;28;20022;-66
2022/07/27 05:24:24;;;;;;;1999.90;999.90;;;;;;;22.61;48.42;95250.19;5052038;28;20025;-66
2022/07/27 05:26:49;;;;;;;1999.90;999.90;;;;;;;22.22;49.80;95236.38;5052558;28;20063;-65
2022/07/27 05:29:15;;;;;;;1999.90;999.90;;;;;;;22.23;50.00;95237.94;5052308;28;20035;-65
2022/07/27 05:31:40;;;;;;;1999.90;999.90;;;;;;;22.84;48.75;95220.88;5051566;28;20078;-65
2022/07/27 05:34:05;;;;;;;1999.90;999.90;;;;;;;22.83;48.20;95221.25;5052033;28;20025;-65
2022/07/27 05:36:31;;;;;;;1999.90;999.90;;;;;;;23.74;47.36;95240.97;5052122;28;20033;-65
2022/07/27 05:38:56;;;;;;;1999.90;999.90;;;;;;;24.15;46.15;95245.25;5052355;28;20033;-65
2022/07/27 05:41:23;;;;;;;1999.90;999.90;;;;;;;24.62;44.89;95269.34;5052210;28;20114;-65
2022/07/27 05:43:51;;;;;;;1999.90;999.90;;;;;;;24.69;44.30;95267.78;5051750;28;20025;-65
2022/07/27 05:46:16;;;;;;;1999.90;999.90;;;;;;;24.70;44.20;95267.38;5052219;28;20048;-65
2022/07/27 05:48:42;;;;;;;1999.90;999.90;;;;;;;24.71;43.99;95221.91;5051326;28;20477;-66
2022/07/27 05:51:07;;;;;;;1999.90;999.90;;;;;;;25.17;43.76;95235.38;5051758;28;20025;-65
2022/07/27 05:53:33;;;;;;;1999.90;999.90;;;;;;;25.50;42.83;95263.25;5051801;28;20103;-66
2022/07/27 05:55:59;;;;;;;1999.90;999.90;;;;;;;25.43;42.80;95201.41;5052200;28;20029;-66
2022/07/27 05:58:24;;;;;;;1999.90;999.90;;;;;;;26.04;42.06;95269.16;5051861;28;20659;-65
2022/07/27 06:00:50;;;;;;;1999.90;999.90;;;;;;;25.08;42.42;95224.16;5051866;28;20480;-65
2022/07/27 06:03:15;;;;;;;1999.90;999.90;;;;;;;24.82;42.92;95256.06;5050584;28;20033;-65
2022/07/27 06:05:41;;;;;;;1999.90;999.90;;;;;;;24.90;43.12;95257.63;5034020;28;20144;-65
2022/07/27 06:08:10;;;;;;;1999.90;999.90;;;;;;;25.11;42.74;95253.31;5052137;28;20444;-65
2022/07/27 06:10:38;;;;;;;1999.90;999.90;;;;;;;25.39;42.67;95266.03;5051579;28;20021;-65
2022/07/27 06:13:05;;;;;;;1999.90;999.90;;;;;;;25.71;42.43;95276.75;5051052;28;20021;-65
2022/07/27 06:15:31;;;;;;;1999.90;999.90;;;;;;;25.80;41.82;95281.81;5050682;28;20063;-65
2022/07/27 06:17:57;;;;;;;1999.90;999.90;;;;;;;24.33;44.30;95263.13;5050748;28;20118;-65
2022/07/27 06:20:23;;;;;;;1999.90;999.90;;;;;;;24.89;42.80;95264.22;5051321;28;20025;-64
2022/07/27 06:22:51;;;;;;;1999.90;999.90;;;;;;;25.06;42.81;95246.31;5051094;28;20029;-64
2022/07/27 06:25:18;;;;;;;1999.90;999.90;;;;;;;25.62;42.04;95287.31;5051443;28;20037;-65
2022/07/27 06:27:43;;;;;;;1999.90;999.90;;;;;;;25.03;42.00;95277.03;5051440;28;20037;-64
2022/07/27 06:30:10;;;;;;;1999.90;999.90;;;;;;;25.04;41.43;95229.59;5051408;28;20496;-65
2022/07/27 06:32:36;;;;;;;1999.90;999.90;;;;;;;25.15;41.23;95227.63;5049920;28;20029;-66
2022/07/27 06:35:02;;;;;;;1999.90;999.90;;;;;;;25.66;41.17;95275.22;5051179;28;20052;-65
2022/07/27 06:37:28;;;;;;;1999.90;999.90;;;;;;;25.38;41.09;95242.69;5033241;28;20017;-65
2022/07/27 06:39:54;;;;;;;1999.90;999.90;;;;;;;25.41;41.68;95261.72;5050988;28;20124;-64
2022/07/27 06:42:19;;;;;;;1999.90;999.90;;;;;;;25.96;41.40;95240.44;5050802;28;20509;-65
2022/07/27 06:44:44;;;;;;;1999.90;999.90;;;;;;;26.23;39.58;95244.09;5050869;28;20025;-65
2022/07/27 06:47:10;;;;;;;1999.90;999.90;;;;;;;25.66;39.74;95271.72;5050225;28;20791;-64
2022/07/27 06:49:35;;;;;;;1999.90;999.90;;;;;;;25.37;40.09;95247.34;5050907;28;20040;-65
2022/07/27 06:52:01;;;;;;;1999.90;999.90;;;;;;;25.64;39.36;95242.16;5050922;28;20107;-65
2022/07/27 06:54:26;;;;;;;1999.90;999.90;;;;;;;25.05;39.83;95265.75;5049272;28;20120;-65
2022/07/27 06:56:51;;;;;;;1999.90;999.90;;;;;;;24.31;40.98;95245.63;5050888;28;20063;-64
2022/07/27 06:59:16;;;;;;;1999.90;999.90;;;;;;;24.88;40.75;95253.75;5050775;28;20128;-64
2022/07/27 07:01:42;;;;;;;1999.90;999.90;;;;;;;25.21;40.91;95246.28;5050831;28;20489;-65
2022/07/27 07:04:08;;;;;;;1999.90;999.90;;;;;;;25.25;40.01;95269.59;5049535;28;20695;-65
2022/07/27 07:06:33;;;;;;;1999.90;999.90;;;;;;;25.08;39.92;95235.84;5050617;28;20048;-65
2022/07/27 07:08:59;;;;;;;1999.90;999.90;;;;;;;25.83;39.52;95251.78;5050930;28;20031;-65
2022/07/27 07:11:24;;;;;;;1999.90;999.90;;;;;;;26.40;38.50;95245.13;5050301;28;20465;-64
2022/07/27 07:13:50;;;;;;;1999.90;999.90;;;;;;;26.15;37.58;95273.34;5048930;28;20517;-65
2022/07/27 07:16:15;;;;;;;1999.90;999.90;;;;;;;26.90;37.33;95264.53;5050442;28;20055;-65
2022/07/27 07:18:40;;;;;;;1999.90;999.90;;;;;;;27.38;36.81;95244.50;5049525;28;20037;-65
2022/07/27 07:21:06;;;;;;;1999.90;999.90;;;;;;;28.08;35.46;95259.56;5049429;28;20028;-65
2022/07/27 07:23:31;;;;;;;1999.90;999.90;;;;;;;28.10;35.22;95266.19;5048435;28;20453;-65
2022/07/27 07:25:56;;;;;;;1999.90;999.90;;;;;;;28.15;35.02;95243.03;5049293;28;20433;-65
2022/07/27 07:28:22;;;;;;;1999.90;999.90;;;;;;;28.67;34.60;95254.31;5048635;28;20024;-65
2022/07/27 07:30:48;;;;;;;1999.90;999.90;;;;;;;29.00;33.82;95249.03;5048843;28;20108;-65
2022/07/27 07:33:13;;;;;;;1999.90;999.90;;;;;;;28.98;34.50;95182.97;5047667;28;20049;-65
2022/07/27 07:35:38;;;;;;;1999.90;999.90;;;;;;;29.06;32.95;95210.97;5049022;28;20358;-64
2022/07/27 07:38:04;;;;;;;1999.90;999.90;;;;;;;29.43;33.46;95220.75;5049731;28;20482;-65
2022/07/27 07:40:29;;;;;;;1999.90;999.90;;;;;;;28.91;33.86;95227.66;5050015;28;20056;-65
2022/07/27 07:42:58;;;;;;;1999.90;999.90;;;;;;;28.89;34.68;95249.19;5049455;28;20086;-64
2022/07/27 07:45:25;;;;;;;1999.90;999.90;;;;;;;28.04;34.55;95221.31;5049844;28;20048;-65
2022/07/27 07:47:51;;;;;;;1999.90;999.90;;;;;;;28.04;33.60;95193.22;5048946;28;20075;-65
2022/07/27 07:50:18;;;;;;;1999.90;999.90;;;;;;;28.42;34.58;95243.78;5049735;28;20025;-65
2022/07/27 07:52:43;;;;;;;1999.90;999.90;;;;;;;27.39;35.52;95270.63;5047954;28;20025;-65
2022/07/27 07:55:10;;;;;;;1999.90;999.90;;;;;;;26.95;36.25;95244.97;5048888;28;20121;-65
2022/07/27 07:57:35;;;;;;;1999.90;999.90;;;;;;;26.69;37.06;95273.72;5049882;28;20025;-65
2022/07/27 08:00:03;;;;;;;1999.90;999.90;;;;;;;26.47;36.75;95206.13;5049711;28;20095;-64
2022/07/27 08:02:28;;;;;;;1999.90;999.90;;;;;;;25.89;38.40;95176.59;5048777;28;20025;-64
2022/07/27 08:04:53;;;;;;;1999.90;999.90;;;;;;;25.28;40.45;95236.09;5049405;28;20044;-64
2022/07/27 08:07:19;;;;;;;1999.90;999.90;;;;;;;25.17;40.77;95219.06;5049705;28;20374;-65
2022/07/27 08:09:44;;;;;;;1999.90;999.90;;;;;;;25.48;39.84;95251.97;5049388;28;20117;-65
2022/07/27 08:12:09;;;;;;;1999.90;999.90;;;;;;;25.69;41.12;95298.16;5049161;28;20021;-64
2022/07/27 08:14:35;;;;;;;1999.90;999.90;;;;;;;24.99;42.24;95280.94;5048886;28;20108;-64
2022/07/27 08:17:00;;;;;;;1999.90;999.90;;;;;;;23.81;43.42;95164.94;5049590;28;20070;-64
2022/07/27 08:19:27;;;;;;;1999.90;999.90;;;;;;;24.59;43.12;95281.00;5048406;28;20114;-64
2022/07/27 08:21:52;;;;;;;1999.90;999.90;;;;;;;24.18;42.67;95165.69;5058869;22;20488;-70
2022/07/27 08:24:17;;;;;;;1999.90;999.90;;;;;;;24.06;43.12;95208.41;5029469;28;20037;-70
2022/07/27 08:26:43;;;;;;;1999.90;999.90;;;;;;;24.97;41.73;95264.19;5028636;28;20026;-73
2022/07/27 08:29:08;;;;;;;1999.90;999.90;;;;;;;25.05;40.93;95182.16;5029703;28;20018;-71
2022/07/27 08:31:34;;;;;;;1999.90;999.90;;;;;;;25.34;40.26;95241.94;5016673;28;20026;-69
2022/07/27 08:33:59;;;;;;;1999.90;999.90;;;;;;;25.79;40.42;95283.72;5026658;28;20026;-69
2022/07/27 08:36:25;;;;;;;1999.90;999.90;;;;;;;25.28;39.98;95219.78;5011260;28;20021;-69
2022/07/27 08:38:50;;;;;;;1999.90;999.90;;;;;;;26.50;39.00;95271.53;5027417;28;20079;-69
2022/07/27 08:41:18;;;;;;;1999.90;999.90;;;;;;;27.45;37.51;95288.13;5033632;28;20040;-70
2022/07/27 08:43:47;;;;;;;1999.90;999.90;;;;;;;27.60;36.83;95282.47;5033118;28;20026;-69
2022/07/27 08:46:16;;;;;;;1999.90;999.90;;;;;;;27.72;35.38;95198.00;5015876;28;20527;-71
2022/07/27 08:48:45;;;;;;;1999.90;999.90;;;;;;;28.11;35.50;95283.34;5032570;28;20034;-70
2022/07/27 08:51:10;;;;;;;1999.90;999.90;;;;;;;28.41;34.80;95283.28;5033432;28;20100;-67
2022/07/27 08:53:36;;;;;;;1999.90;999.90;;;;;;;27.84;34.00;95232.16;5033155;28;20108;-70
2022/07/27 08:56:02;;;;;;;1999.90;999.90;;;;;;;28.29;34.15;95245.53;5033406;28;20465;-69
2022/07/27 08:58:28;;;;;;;1999.90;999.90;;;;;;;27.99;33.66;95244.44;5015591;28;20021;-69
2022/07/27 09:00:55;;;;;;;1999.90;999.90;;;;;;;27.23;35.60;95289.56;5033211;28;20521;-69
2022/07/27 09:03:24;;;;;;;1999.90;999.90;;;;;;;27.63;34.19;95227.00;5032365;28;20073;-70
2022/07/27 09:05:54;;;;;;;1999.90;999.90;;;;;;;28.40;33.45;95273.50;5033287;28;20096;-68
2022/07/27 09:08:26;;;;;;;1999.90;999.90;;;;;;;26.91;36.05;95293.38;5033014;28;20017;-67
2022/07/27 09:10:55;;;;;;;;;;;;;;;27.89;35.12;95293.81;5033406;28;20091;-67
2022/07/27 09:13:20;;;;;;;1999.90;999.90;;;;;;;27.33;34.92;95296.06;5027660;28;19944;-69
2022/07/27 09:15:49;;;;;;;1999.90;999.90;;;;;;;27.03;35.94;95258.56;5025061;28;20494;-68
2022/07/27 09:18:25;;;;;;;1999.90;999.90;;;;;;;26.81;35.54;95238.91;5031983;28;20037;-70
2022/07/27 09:21:11;;;;;;;1999.90;999.90;;;;;;;27.26;35.64;95313.31;5012932;28;20112;-72
2022/07/27 09:23:49;;;;;;;1999.90;999.90;;;;;;;28.51;34.34;95289.78;4994805;28;20041;-72
2022/07/27 09:26:23;;;;;;;1999.90;999.90;;;;;;;27.03;35.29;95086.59;5012721;28;20025;-68
2022/07/27 09:28:53;;;;;;;1999.90;999.90;;;;;;;27.84;35.22;95221.22;5012754;28;20022;-67
2022/07/27 09:31:18;;;;;;;1999.90;999.90;;;;;;;28.93;33.96;95195.16;5021372;28;20113;-69
2022/07/27 09:33:49;;;;;;;1999.90;999.90;;;;;;;28.92;32.97;95286.72;5032228;28;20100;-70
2022/07/27 09:36:16;;;;;;;1999.90;999.90;;;;;;;28.47;32.35;95267.94;5033454;28;20029;-70
2022/07/27 09:39:02;;;;;;;1999.90;999.90;;;;;;;28.88;32.39;95290.69;5035849;28;20372;-72
2022/07/27 09:41:44;;;;;;;1999.90;999.90;;;;;;;29.45;30.37;95295.13;5033203;28;20026;-72
2022/07/27 09:44:10;;;;;;;1999.90;999.90;;;;;;;28.08;32.75;95274.00;5015018;28;20023;-70
2022/07/27 09:46:42;;;;;;;1999.90;999.90;;;;;;;28.45;32.36;95303.13;5031147;28;20482;-70
2022/07/27 09:49:32;;;;;;;1999.90;999.90;;;;;;;28.49;33.16;95297.63;5032288;28;20117;-74
2022/07/27 09:51:58;;;;;;;1999.90;999.90;;;;;;;29.04;31.50;95277.13;5032875;28;20031;-73
2022/07/27 09:54:24;;;;;;;1999.90;999.90;;;;;;;29.11;31.03;95298.13;5027793;28;20413;-73
2022/07/27 09:56:59;;;;;;;1999.90;999.90;;;;;;;28.49;32.21;95265.56;5024236;28;20022;-69
2022/07/27 09:59:24;;;;;;;1999.90;999.90;;;;;;;28.57;31.67;95293.59;5012447;28;20394;-78
2022/07/27 10:01:50;;;;;;;1999.90;999.90;;;;;;;29.26;31.59;95277.47;5008653;28;20017;-76
2022/07/27 10:04:15;;;;;;;1999.90;999.90;;;;;;;29.33;30.74;95260.91;5032027;28;20145;-74
2022/07/27 10:06:42;;;;;;;1999.90;999.90;;;;;;;28.96;32.15;95303.09;5031589;28;20377;-76
2022/07/27 10:09:07;;;;;;;1999.90;999.90;;;;;;;29.22;31.15;95268.53;5031688;28;20049;-79
2022/07/27 10:11:33;;;;;;;1999.90;999.90;;;;;;;28.68;31.67;95233.19;5031517;28;20064;-76
2022/07/27 10:13:59;;;;;;;1999.90;999.90;;;;;;;28.12;32.90;95285.66;5030746;28;20029;-74
2022/07/27 10:16:27;;;;;;;1999.90;999.90;;;;;;;27.61;33.35;95226.63;5031113;28;20054;-74
2022/07/27 10:19:05;;;;;;;1999.90;999.90;;;;;;;28.09;32.15;95296.66;5014199;28;20025;-72
2022/07/27 10:21:32;;;;;;;1999.90;999.90;;;;;;;27.99;31.55;95262.81;5032639;28;20022;-77
2022/07/27 10:24:00;;;;;;;1999.90;999.90;;;;;;;28.19;31.81;95301.19;5032318;28;20038;-76
2022/07/27 10:26:27;;;;;;;1999.90;999.90;;;;;;;27.76;32.03;95279.16;5014550;28;20021;-76
2022/07/27 10:28:52;;;;;;;1999.90;999.90;;;;;;;28.41;30.86;95294.22;5014932;28;20036;-77
2022/07/27 10:31:21;;;;;;;1999.90;999.90;;;;;;;28.70;30.15;95299.22;5011221;28;20474;-73
2022/07/27 10:33:49;;;;;;;1999.90;999.90;;;;;;;27.97;30.42;95301.50;5031129;28;20859;-72
2022/07/27 10:36:15;;;;;;;1999.90;999.90;;;;;;;29.38;28.71;95233.00;5014238;28;20030;-72
2022/07/27 10:38:50;;;;;;;1999.90;999.90;;;;;;;29.70;28.24;95305.59;5031537;28;20025;-74
2022/07/27 10:41:24;;;;;;;1999.90;999.90;;;;;;;29.40;27.91;95258.00;5013687;28;20382;-71
2022/07/27 10:44:16;;;;;;;1999.90;999.90;;;;;;;30.99;25.91;95306.88;5031347;28;20433;-71
2022/07/27 10:46:54;;;;;;;1999.90;999.90;;;;;;;30.16;25.86;95303.84;5013249;28;20108;-73
2022/07/27 10:49:24;;;;;;;1999.90;999.90;;;;;;;31.16;25.19;95304.09;5030534;28;20031;-70
2022/07/27 10:51:54;;;;;;;1999.90;999.90;;;;;;;31.42;25.18;95289.25;5031556;28;20033;-72